Lisbon, IA (52253)

2:36 AM CST on December 22, 2014 (GMT -0600)
KIALISBO2 | Change Station
CLOSE
Current Station
Personal Weather Station
Location: Lisbon, IA
Elevation: 856 ft
Nearby Weather Stations

Elev 856 ft 41.92 °N, 91.39 °W | Updated 12 minutes ago

Overcast
Overcast
36.0 °F
Feels Like 31 °F
N
6.3
Wind Variable Wind from South

Today
High -- | Low -- °F
--% Chance of Precip.
Yesterday
High -- | Low -- °F
Precip. -- in
7:30 AM 4:37 PM
New Moon, 0% visible
Pressure 29.80 in
Visibility 5.0 miles
Clouds Scattered Clouds 1300 ft
Mostly Cloudy 3300 ft
Overcast 5000 ft
Windchill 31 °F
Dew Point 36 °F
Humidity 98%
Rainfall 0.00 in
Snow Depth Not available.
UV 0 out of 12
Pollen .10 out of 12
Air Quality Not available.
Flu Activity Not available.
SPECI KCID 220822Z AUTO 15012G20KT 5SM BR SCT013 BKN033 OVC050 02/01 A2980 RMK AO2 T00220011 $

More Conditions Fewer Conditions

Pressure 29.80 in
Visibility 5.0 miles
Clouds Scattered Clouds 1300 ft
Mostly Cloudy 3300 ft
Overcast 5000 ft
Windchill 31 °F
Dew Point 36 °F
Humidity 98%
Rainfall 0.00 in
Snow Depth Not available.
UV 0 out of 12
Pollen .10 out of 12
Air Quality Not available.
Flu Activity Not available.
SPECI KCID 220822Z AUTO 15012G20KT 5SM BR SCT013 BKN033 OVC050 02/01 A2980 RMK AO2 T00220011 $

More Conditions Fewer Conditions

10-Day Weather Forecast

Almanac

Astronomy

Dec. 22, 2014 Rise Set
Actual Time
Civil Twilight
Nautical Twilight
Astronomical Twilight
Moon
Length of Visible Light
Length of Day
Tomorrow will be .
, % of the Moon is Illuminated

Today's Extremes

State Highs State Lows

Community

WunderPhotos

Upload Photos

1,779,580 photos uploaded!

WunderBlogs® & News

Nearby

Air Quality

  Air Quality AQ Index Pollutant
Not available.

Snow Depth

Station Depth Elevation

Earthquake Activity

City Distance Mag. Time & Date
Minimum magnitude displayed is 2.5.

Coastal Water Temperatures

Place Temperature

Nearby Weather Stations